Tikaboo Peak, Nevada Weather observations

Data are for 10 minute period ending at time listed.
 Day   Time   Solar   Ave.   Ave.  Ave.  Vector  Max.   Baro.   Total    
  of    of     Rad.   Air    Rel.  Wind   Wind   Wind  Press.  Precip.   
Year   Day            Temp.  Hum.  Speed  Dir.   Gust                    
2017   (PST)  Kw/m2    F      %     mph   deg.    mph    mb.     in.     
-------------------------------------------------------------------------
  52   23:30   0.00   33.2    88   18.2     9    28.9   760.5    0.00 
  52   23:40   0.00   33.1    88   15.7    10    23.9   760.4    0.00 
  52   23:50   0.00   32.9    88   16.1    12    24.3   760.3    0.00 
  53    0:00   0.00   32.8    88   17.2    12    26.8   760.4    0.00 
  53    0:10   0.00   32.9    88   16.7    20    29.1   760.3    0.00 
  53    0:20   0.00   32.8    86   18.4    10    28.1   760.1    0.00 
  53    0:30   0.00   32.7    87   21.1    22    34.3   759.9    0.00 
  53    0:40   0.00   32.4    88   21.7    20    31.2   759.7    0.00 
  53    0:50   0.00   32.3    88   22.0    21    34.2   759.5    0.00 
  53    1:00   0.00   32.2    88   20.5    28    28.6   759.5    0.00 
  53    1:10   0.00   32.1    87   23.0    30    33.3   759.4    0.00 
  53    1:20   0.00   32.2    85   20.4    30    32.8   759.2    0.00 
  53    1:30   0.00   31.9    87   20.3    32    31.1   759.1    0.00 
  53    1:40   0.00   31.7    89   21.4    33    37.8   758.9    0.00 
  53    1:50   0.00   31.4    90   19.8    44    33.0   758.7    0.00 
  53    2:00   0.00   31.3    90   19.6    43    30.6   758.6    0.00 
  53    2:10   0.00   31.1    91   19.1    43    31.9   758.5    0.00 
  53    2:20   0.00   30.9    91   19.5    44    30.2   758.4    0.00 
  53    2:30   0.00   30.9    90   17.9    54    29.5   758.3    0.00 
  53    2:40   0.00   30.7    91   18.0    52    27.5   758.2    0.00 
  53    2:50   0.00   30.5    91   19.0    42    28.9   758.2    0.00 
  53    3:00   0.00   30.5    89   17.7    44    24.8   758.2    0.00 
  53    3:10   0.00   30.3    90   13.1    32    20.8   758.1    0.00 
  53    3:20   0.00   30.1    91   14.5    19    20.1   758.1    0.00 
  53    3:30   0.00   29.9    92   12.0    31    18.0   758.0    0.00 
  53    3:40   0.00   29.7    92    9.3    33    17.1   758.0    0.00 
  53    3:50   0.00   29.7    92   12.7     9    17.2   757.9    0.00 
  53    4:00   0.00   29.6    92   13.8    17    16.7   758.0    0.00 
  53    4:10   0.00   29.6    90   16.0    14    18.4   757.8    0.00 
  53    4:20   0.00   29.6    90   14.7    21    19.8   757.6    0.00 
  53    4:30   0.00   29.5    88   15.2    37    18.5   757.5    0.00 
  53    4:40   0.00   29.4    88   11.6    42    17.7   757.4    0.00 
  53    4:50   0.00   29.2    89   10.6    51    16.9   757.3    0.00 
  53    5:00   0.00   29.0    92   10.5    68    13.2   757.3    0.00 
  53    5:10   0.00   28.8    92   11.6    67    15.7   757.2    0.00 
  53    5:20   0.00   28.6    93   11.4    58    17.0   757.1    0.00 
  53    5:30   0.00   28.7    90   12.2    40    17.8   757.0    0.00 
  53    5:40   0.00   28.3    92   12.3    54    16.3   757.0    0.00 
  53    5:50   0.00   28.3    92   10.0    68    14.4   757.0    0.00 
  53    6:00   0.00   27.9    96    9.8    75    15.3   757.0    0.00 
  53    6:10   0.00   27.5    97    7.2    79    12.3   756.9    0.00 
  53    6:20   0.00   27.3    98   11.1    66    17.7   756.8    0.00 
  53    6:30   0.01   27.4    96   13.6    59    20.3   756.6    0.00 
  53    6:40   0.08   28.0    91   15.8    41    21.7   756.6    0.00 
  53    6:50   0.12   28.7    87   15.1    46    22.9   756.5    0.00 
  53    7:00   0.15   28.9    86   15.0    29    21.6   756.7    0.00 
  53    7:10   0.19   29.4    86   13.7    48    20.0   756.7    0.00 
  53    7:20   0.23   31.9    80   13.0    51    17.4   756.7    0.00 
  53    7:30   0.26   33.1    76   13.8    58    17.0   756.8    0.00 
  53    7:40   0.30   33.1    76   14.8    60    20.8   756.7    0.00 
  53    7:50   0.34   33.4    74   16.7    52    21.4   756.7    0.00 
  53    8:00   0.38   33.3    74   15.3    54    21.0   756.8    0.00 
  53    8:10   0.41   33.7    74   13.4    62    19.0   756.8    0.00 
  53    8:20   0.45   35.0    73   10.2    74    14.6   756.8    0.00 
  53    8:30   0.48   35.8    70   10.3    66    13.3   756.8    0.00 
  53    8:40   0.52   36.9    68    7.5    72    13.1   756.9    0.00 
  53    8:50   0.54   36.4    67    7.3    62    13.9   756.9    0.00 
  53    9:00   0.53   36.6    67    5.9    44    10.8   756.9    0.00 
  53    9:10   0.58   37.6    66    6.4    46     9.8   757.0    0.00 
  53    9:20   0.60   36.4    69    6.5    65    15.3   757.0    0.00 
  53    9:30   0.66   36.9    68    8.7    73    14.5   757.0    0.00 
  53    9:40   0.68   37.7    64    9.7    72    15.4   757.0    0.00 
  53    9:50   0.73   38.2    64    8.1    61    12.1   757.0    0.00 
  53   10:00   0.74   38.1    64    5.7    58    13.2   756.8    0.00 
  53   10:10   0.57   37.3    66    8.0    78    13.0   756.8    0.00 
  53   10:20   0.72   37.1    65    8.3    71    18.5   756.8    0.00 
  53   10:30   0.68   37.1    63    9.2    80    19.6   756.6    0.00 
  53   10:40   0.79   37.7    59   13.7    75    25.7   756.5    0.00 
  53   10:50   0.80   36.7    59   15.7    68    24.5   756.4    0.00 
  53   11:00   0.79   37.7    59    9.9    84    21.9   756.3    0.00 
  53   11:10   0.82   38.5    58    8.9    79    20.4   756.4    0.00 
  53   11:20   0.45   38.0    59    5.6    84    17.0   756.3    0.00 
  53   11:30   0.81   37.3    62    4.2    90    15.1   756.1    0.00 
  53   11:40   0.85   39.1    58    5.7    80    19.4   755.9    0.00 
  53   11:50   0.81   38.9    56    7.4    84    21.9   755.6    0.00 
  53   12:00   0.81   37.0    57   10.4    63    19.5   755.4    0.00 
  53   12:10   0.81   35.0    62   10.9    50    20.0   755.2    0.00 
  53   12:20   0.81   36.2    61   11.7    60    20.9   755.1    0.00 
  53   12:30   0.80   38.1    56   11.9    71    24.0   754.9    0.00 
  53   12:40   0.67   37.8    58   11.5    79    23.5   754.7    0.00 
  53   12:50   0.71   38.4    59   13.3    70    23.5   754.5    0.00 
  53   13:00   0.24   36.7    64   12.1    72    22.4   754.3    0.00 
  53   13:10   0.07   33.7    74    2.4   187     8.6   754.3    0.00 
  53   13:20   0.11   32.8    77    2.6   141    16.1   754.3    0.00 
  53   13:30   0.11   31.3    78    4.2   111    16.8   754.2    0.00 
  53   13:40   0.12   30.7    78    2.9   125    12.9   754.1    0.00 
  53   13:50   0.14   30.5    78    3.6   139    16.6   754.0    0.00 
  53   14:00   0.13   30.3    77    3.2   136    21.0   753.8    0.00 
  53   14:10   0.10   30.3    76    2.7   127    18.0   753.8    0.00 
  53   14:20   0.15   29.6    78    4.3   118    19.4   753.6    0.00 
  53   14:30   0.17   29.8    75    3.4   102    16.7   753.5    0.00 
  53   14:40   0.15   30.5    71    4.5    84    20.7   753.4    0.00 
  53   14:50   0.08   29.9    68    5.8    88    21.2   753.3    0.00 
  53   15:00   0.08   29.5    64    3.2   127    14.2   753.4    0.00 
  53   15:10   0.07   29.0    54    4.2   127    20.6   753.2    0.00 
  53   15:20   0.06   29.1    50    2.7   116    13.9   753.0    0.00 
  53   15:30   0.05   29.0    47    3.8   109    21.2   752.9    0.00 
  53   15:40   0.05   28.6    45    7.5   102    28.1   752.8    0.00 
  53   15:50   0.06   28.5    45    8.1   100    27.8   752.6    0.00 
  53   16:00   0.06   28.0    45   12.0   101    35.6   752.6    0.00 
  53   16:10   0.05   27.8    44    7.7    94    25.6   752.6    0.00 
  53   16:20   0.05   27.4    44    4.9   108    19.4   752.6    0.00 
  53   16:30   0.04   26.5    50    4.4   130    17.6   752.6    0.00 
  53   16:40   0.03   25.9    54    4.3   136    19.7   752.7    0.00 
  53   16:50   0.02   25.6    52    3.6   112    13.3   752.8    0.00 
  53   17:00   0.01   25.4    50    3.8   169    15.3   752.8    0.00 
  53   17:10   0.01   25.2    50    9.4   112    29.5   752.5    0.00 
  53   17:20   0.01   25.3    46    3.8   127    16.3   752.6    0.00 
  53   17:30   0.00   25.4    43    3.8   132    20.4   752.5    0.00 
  53   17:40   0.00   25.8    41    8.5   106    24.3   752.4    0.00 
  53   17:50   0.00   25.8    40    4.8    73    25.9   752.1    0.00 
  53   18:00   0.00   25.9    35    4.7   112    18.3   752.3    0.00 
  53   18:10   0.00   26.1    31    4.3   100    26.8   752.0    0.00 
  53   18:20   0.00   26.3    30    5.2    94    18.3   752.1    0.00 
  53   18:30   0.00   26.3    30    2.5   117    14.0   752.1    0.00 
  53   18:40   0.00   26.3    30    9.0   115    27.5   752.1    0.00 
  53   18:50   0.00   26.4    31    8.7   115    26.7   752.0    0.00 
  53   19:00   0.00   26.3    31    6.8   113    21.3   752.2    0.00 
  53   19:10   0.00   26.4    31    7.0   100    18.1   751.9    0.00 
  53   19:20   0.00   26.3    31    6.7   100    22.3   751.9    0.00 
  53   19:30   0.00   26.3    30    7.3   105    19.6   751.9    0.00 
  53   19:40   0.00   26.2    29    8.0   100    20.0   751.9    0.00 
  53   19:50   0.00   26.1    29    2.7    89    12.8   752.0    0.00 
  53   20:00   0.00   26.0    31    3.8   125    18.2   752.2    0.00 
  53   20:10   0.00   25.0    49   16.5   138    24.5   752.0    0.00 
  53   20:20   0.00   24.2    52   18.8   151    24.0   751.8    0.00 
  53   20:30   0.00   23.8    52   17.7   154    25.9   751.5    0.00 
  53   20:40   0.00   23.4    50   19.0   156    27.2   751.5    0.00 
  53   20:50   0.00   23.0    50   18.5   148    27.3   751.5    0.00 
  53   21:00   0.00   22.7    49   23.0   146    29.9   751.5    0.00 
  53   21:10   0.00   22.5    46   25.8   153    31.4   751.4    0.00 
  53   21:20   0.00   22.1    47   22.9   160    29.6   751.5    0.00 
  53   21:30   0.00   21.7    48   21.7   162    26.2   751.5    0.00 
  53   21:40   0.00   21.6    50   19.9   156    24.3   751.6    0.00 
  53   21:50   0.00   21.8    49   20.1   144    25.1   751.7    0.00 
  53   22:00   0.00   22.0    49   19.4   136    23.7   751.8    0.00 
  53   22:10   0.00   21.9    48   19.1   124    24.9   751.7    0.00 
  53   22:20   0.00   21.9    49   15.8   115    21.5   751.7    0.00 
  53   22:30   0.00   21.9    49   12.3   110    19.1   751.7    0.00 
  53   22:40   0.00   21.9    48    8.7   111    19.4   751.7    0.00 
  53   22:50   0.00   21.8    48    7.2   111    16.1   751.9    0.00 
  53   23:00   0.00   21.8    50    3.9   106    15.1   751.9    0.00 
  53   23:10   0.00   21.7    49    4.6    93    15.4   751.8    0.00 
  53   23:20   0.00   21.6    48    2.3    93     8.8   751.9    0.00 

Return to Tikaboo Peak graphs page.


Western Regional Climate Center,wrcc@dri.edu